createdAt,value
2023-12-15T04:38:59.408Z,100.00
2023-12-15T04:42:02.733Z,100.00
2023-12-15T04:45:09.442Z,100.00
2023-12-15T04:48:12.612Z,100.00
2023-12-15T04:51:15.471Z,100.00
2023-12-15T04:54:18.668Z,100.00
2023-12-15T04:57:21.497Z,100.00
2023-12-15T05:00:24.457Z,100.00
2023-12-15T05:03:27.395Z,100.00
2023-12-15T05:06:30.562Z,100.00
2023-12-15T05:09:33.125Z,100.00
2023-12-15T05:12:37.120Z,100.00
2023-12-15T05:15:39.928Z,100.00
2023-12-15T05:18:43.030Z,100.00
2023-12-15T05:21:45.576Z,100.00
2023-12-15T05:24:48.648Z,100.00
2023-12-15T05:27:51.387Z,100.00
2023-12-15T05:30:54.856Z,100.00
2023-12-15T05:33:57.709Z,100.00
2023-12-15T05:37:00.492Z,100.00
2023-12-15T05:40:04.468Z,100.00
2023-12-15T05:43:07.628Z,100.00
2023-12-15T05:46:10.805Z,100.00
2023-12-15T05:49:14.158Z,100.00
2023-12-15T05:52:20.104Z,100.00
2023-12-15T05:55:23.024Z,100.00
2023-12-15T05:58:25.889Z,100.00
2023-12-15T06:01:28.771Z,100.00
2023-12-15T06:04:31.850Z,100.00
2023-12-15T06:07:35.794Z,100.00
2023-12-15T06:10:39.024Z,100.00
2023-12-15T06:13:43.249Z,100.00
2023-12-15T06:16:46.250Z,100.00
2023-12-15T06:19:48.989Z,100.00
2023-12-15T06:22:55.593Z,100.00
2023-12-15T06:25:58.817Z,100.00
2023-12-15T06:29:01.820Z,100.00
2023-12-15T06:32:04.980Z,100.00
2023-12-15T06:35:08.346Z,100.00
2023-12-15T06:38:11.301Z,100.00
2023-12-15T06:41:15.385Z,100.00
2023-12-15T06:44:18.068Z,100.00
2023-12-15T06:47:20.990Z,100.00
2023-12-15T06:50:23.907Z,100.00
2023-12-15T06:53:27.050Z,100.00
2023-12-15T06:56:29.681Z,100.00
2023-12-15T06:59:32.810Z,100.00
2023-12-15T07:02:35.816Z,100.00
2023-12-15T07:05:38.999Z,100.00
2023-12-15T07:08:42.493Z,100.00
2023-12-15T07:11:46.290Z,100.00
2023-12-15T07:14:49.240Z,100.00
2023-12-15T07:17:52.333Z,100.00
2023-12-15T07:20:55.142Z,100.00
2023-12-15T07:23:58.957Z,100.00
2023-12-15T07:27:01.635Z,100.00
2023-12-15T07:30:05.173Z,100.00
2023-12-15T07:33:09.794Z,100.00
2023-12-15T07:36:12.901Z,100.00
2023-12-15T07:39:22.287Z,100.00
2023-12-15T07:42:25.315Z,100.00
2023-12-15T07:45:28.339Z,100.00
2023-12-15T07:48:31.220Z,100.00
2023-12-15T07:51:34.143Z,100.00
2023-12-15T07:54:37.437Z,100.00
2023-12-15T07:57:41.164Z,100.00
2023-12-15T08:00:44.246Z,100.00
2023-12-15T08:03:47.635Z,100.00
2023-12-15T08:06:50.484Z,100.00
2023-12-15T08:09:53.422Z,100.00
2023-12-15T08:12:56.632Z,100.00
2023-12-15T08:15:59.524Z,100.00
2023-12-15T08:19:06.791Z,100.00
2023-12-15T08:22:09.943Z,100.00
2023-12-15T08:25:13.111Z,100.00
2023-12-15T08:28:16.148Z,100.00
2023-12-15T08:31:18.914Z,100.00
2023-12-15T08:34:22.321Z,100.00
2023-12-15T08:37:25.416Z,100.00
2023-12-15T08:40:29.079Z,100.00
2023-12-15T08:43:31.905Z,100.00
2023-12-15T08:46:36.385Z,100.00
2023-12-15T08:49:39.328Z,100.00
2023-12-15T08:52:42.495Z,100.00
2023-12-15T08:55:46.279Z,100.00
2023-12-15T08:58:49.223Z,100.00
2023-12-15T09:01:52.088Z,100.00
2023-12-15T09:05:02.069Z,100.00
2023-12-15T09:08:09.043Z,100.00
2023-12-15T09:11:13.310Z,100.00
2023-12-15T09:14:17.248Z,100.00
2023-12-15T09:17:20.378Z,100.00
2023-12-15T09:20:25.124Z,100.00
2023-12-15T09:23:28.398Z,100.00
2023-12-15T09:26:31.502Z,100.00
2023-12-15T09:29:39.001Z,100.00
2023-12-15T09:32:44.134Z,100.00
2023-12-15T09:35:47.262Z,100.00
2023-12-15T09:38:50.786Z,100.00
2023-12-15T09:41:54.088Z,100.00
2023-12-15T09:45:04.286Z,100.00
2023-12-15T09:48:11.809Z,100.00
2023-12-15T09:51:26.695Z,100.00
2023-12-15T09:54:30.427Z,100.00
2023-12-15T09:57:34.098Z,100.00
2023-12-15T10:00:37.784Z,100.00
2023-12-15T10:03:41.027Z,100.00
2023-12-15T10:06:44.455Z,100.00
2023-12-15T10:09:48.246Z,100.00
2023-12-15T10:12:51.163Z,100.00
2023-12-15T10:15:54.125Z,100.00
2023-12-15T10:18:57.101Z,100.00
2023-12-15T10:22:03.206Z,100.00
2023-12-15T10:25:22.316Z,100.00
2023-12-15T10:28:25.261Z,100.00
2023-12-15T10:31:28.455Z,100.00
2023-12-15T10:34:31.485Z,100.00
2023-12-15T10:37:35.572Z,100.00
2023-12-15T10:40:38.581Z,100.00
2023-12-15T10:43:43.587Z,100.00
2023-12-15T10:46:48.410Z,100.00
2023-12-15T10:49:53.713Z,100.00
2023-12-15T10:52:57.701Z,100.00
2023-12-15T10:56:01.349Z,100.00
2023-12-15T10:59:06.474Z,100.00
2023-12-15T11:02:12.340Z,100.00
2023-12-15T11:05:20.793Z,100.00
2023-12-15T11:08:29.116Z,100.00
2023-12-15T11:11:33.216Z,100.00
2023-12-15T11:14:36.615Z,100.00
2023-12-15T11:18:09.434Z,100.00
2023-12-15T11:21:13.080Z,100.00
2023-12-15T11:24:16.844Z,100.00
2023-12-15T11:27:19.403Z,100.00
2023-12-15T11:30:29.897Z,100.00
2023-12-15T11:33:41.212Z,100.00
2023-12-15T11:36:46.175Z,100.00
2023-12-15T11:39:50.372Z,100.00
2023-12-15T11:42:53.426Z,100.00
2023-12-15T11:45:56.697Z,100.00
2023-12-15T11:48:59.905Z,100.00
2023-12-15T11:52:06.030Z,100.00
2023-12-15T11:55:09.476Z,100.00
2023-12-15T11:58:12.360Z,100.00
2023-12-15T12:01:18.409Z,100.00
2023-12-15T12:04:21.655Z,100.00
2023-12-15T12:07:24.480Z,100.00
2023-12-15T12:10:40.621Z,100.00
2023-12-15T12:13:43.547Z,100.00
2023-12-15T12:16:52.457Z,100.00
2023-12-15T12:19:55.746Z,100.00
2023-12-15T12:23:00.049Z,100.00
2023-12-15T12:26:03.771Z,100.00
2023-12-15T12:29:06.832Z,100.00
2023-12-15T12:32:10.635Z,100.00
2023-12-15T12:35:13.948Z,100.00
2023-12-15T12:38:16.652Z,100.00
2023-12-15T12:41:19.847Z,99.82
2023-12-15T12:44:22.917Z,100.00
2023-12-15T12:47:29.241Z,100.00
2023-12-15T12:50:33.193Z,100.00
2023-12-15T12:53:37.723Z,100.00
2023-12-15T12:56:50.584Z,91.74
2023-12-15T13:00:01.733Z,94.67
2023-12-15T13:03:05.408Z,91.00
2023-12-15T13:06:10.170Z,92.88
2023-12-15T13:09:19.598Z,89.82
2023-12-15T13:12:22.960Z,91.53
2023-12-15T13:15:25.953Z,92.76
2023-12-15T13:18:29.050Z,88.46
2023-12-15T13:21:32.165Z,91.97
2023-12-15T13:24:43.339Z,89.96
2023-12-15T13:27:50.205Z,89.95
2023-12-15T13:30:53.638Z,92.22
2023-12-15T13:33:57.619Z,91.23
2023-12-15T13:37:00.601Z,87.77
2023-12-15T13:40:05.378Z,88.00
2023-12-15T13:43:08.691Z,90.44
2023-12-15T13:46:12.068Z,93.17
2023-12-15T13:49:17.042Z,86.79
2023-12-15T13:52:20.713Z,91.28
2023-12-15T13:55:24.297Z,94.44
2023-12-15T13:58:27.366Z,94.71
2023-12-15T14:01:30.281Z,98.13
2023-12-15T14:04:33.265Z,99.16
2023-12-15T14:07:36.608Z,98.52
2023-12-15T14:10:39.839Z,100.00
2023-12-15T14:13:42.540Z,99.79
2023-12-15T14:16:47.835Z,98.89
2023-12-15T14:19:51.485Z,98.17
2023-12-15T14:22:55.453Z,95.17
2023-12-15T14:25:58.413Z,97.33
2023-12-15T14:29:04.528Z,98.47
2023-12-15T14:32:07.651Z,99.27
2023-12-15T14:35:11.335Z,100.00
2023-12-15T14:38:14.086Z,100.00
2023-12-15T14:41:17.396Z,100.00
2023-12-15T14:44:20.203Z,99.08
2023-12-15T14:47:23.397Z,98.22
2023-12-15T14:50:26.215Z,97.80
2023-12-15T14:53:29.062Z,100.00
2023-12-15T14:56:31.707Z,100.00
2023-12-15T14:59:35.206Z,99.37
2023-12-15T15:02:38.160Z,98.23
2023-12-15T15:05:41.554Z,100.00
2023-12-15T15:08:45.263Z,99.27
2023-12-15T15:11:49.180Z,97.83
2023-12-15T15:14:51.999Z,96.23
2023-12-15T15:17:55.091Z,97.52
2023-12-15T15:20:57.781Z,100.00
2023-12-15T15:24:00.877Z,100.00
2023-12-15T15:27:04.321Z,100.00
2023-12-15T15:30:09.923Z,96.40
2023-12-15T15:33:13.148Z,97.67
2023-12-15T15:36:17.735Z,97.91
2023-12-15T15:39:21.256Z,100.00
2023-12-15T15:42:24.367Z,100.00
2023-12-15T15:45:27.330Z,100.00
2023-12-15T15:48:34.349Z,98.86
2023-12-15T15:51:37.341Z,100.00
2023-12-15T15:54:44.269Z,100.00
2023-12-15T15:57:47.338Z,100.00
2023-12-15T16:00:50.662Z,100.00
2023-12-15T16:03:53.717Z,100.00
2023-12-15T16:06:56.444Z,100.00
2023-12-15T16:10:00.072Z,100.00
2023-12-15T16:13:03.043Z,100.00
2023-12-15T16:16:06.994Z,100.00
2023-12-15T16:19:10.663Z,100.00
2023-12-15T16:22:14.250Z,100.00
2023-12-15T16:25:17.166Z,100.00
2023-12-15T16:28:20.144Z,100.00
2023-12-15T16:31:23.033Z,100.00
2023-12-15T16:34:27.823Z,100.00
2023-12-15T16:37:30.661Z,100.00
2023-12-15T16:40:33.528Z,100.00
2023-12-15T16:43:36.806Z,100.00
2023-12-15T16:46:39.841Z,100.00
2023-12-15T16:49:45.335Z,100.00
2023-12-15T16:52:48.826Z,100.00
2023-12-15T16:55:51.677Z,100.00
2023-12-15T16:58:54.712Z,100.00
2023-12-15T17:01:57.408Z,100.00
2023-12-15T17:05:01.910Z,100.00
2023-12-15T17:08:07.398Z,100.00
2023-12-15T17:11:14.608Z,100.00
2023-12-15T17:14:17.409Z,100.00
2023-12-15T17:17:20.618Z,100.00
2023-12-15T17:20:23.467Z,100.00
2023-12-15T17:23:26.731Z,100.00
2023-12-15T17:26:29.894Z,100.00
2023-12-15T17:29:39.933Z,100.00
2023-12-15T17:32:49.880Z,100.00
2023-12-15T17:35:52.817Z,100.00
2023-12-15T17:38:55.628Z,100.00
2023-12-15T17:41:58.589Z,100.00
2023-12-15T17:45:01.159Z,100.00
2023-12-15T17:48:04.508Z,100.00
2023-12-15T17:51:07.931Z,100.00
2023-12-15T17:54:10.845Z,100.00
2023-12-15T17:57:13.700Z,100.00
2023-12-15T18:00:16.841Z,100.00
2023-12-15T18:03:22.280Z,100.00
2023-12-15T18:06:25.221Z,100.00
2023-12-15T18:09:28.469Z,100.00
2023-12-15T18:12:31.481Z,100.00
2023-12-15T18:15:35.380Z,100.00
2023-12-15T18:18:39.075Z,100.00
2023-12-15T18:21:42.453Z,100.00
2023-12-15T18:24:45.401Z,100.00
2023-12-15T18:27:48.338Z,100.00
2023-12-15T18:30:51.523Z,100.00
2023-12-15T18:33:54.850Z,100.00
2023-12-15T18:37:01.330Z,100.00
2023-12-15T18:40:06.652Z,100.00
2023-12-15T18:43:09.444Z,100.00
2023-12-15T18:46:21.514Z,100.00
2023-12-15T18:49:24.473Z,100.00
2023-12-15T18:52:27.614Z,100.00
2023-12-15T18:55:30.276Z,100.00
2023-12-15T18:58:33.344Z,100.00
2023-12-15T19:01:36.423Z,100.00
2023-12-15T19:04:42.195Z,100.00
2023-12-15T19:07:46.591Z,100.00
2023-12-15T19:10:51.291Z,100.00
2023-12-15T19:13:54.837Z,100.00
2023-12-15T19:16:58.132Z,100.00
2023-12-15T19:20:00.987Z,100.00
2023-12-15T19:23:04.283Z,100.00
2023-12-15T19:26:08.989Z,100.00
2023-12-15T19:29:12.804Z,100.00
2023-12-15T19:32:15.435Z,100.00
2023-12-15T19:35:18.690Z,100.00
2023-12-15T19:38:21.951Z,100.00
2023-12-15T19:41:25.240Z,100.00
2023-12-15T19:44:30.833Z,100.00
2023-12-15T19:47:34.125Z,100.00
2023-12-15T19:50:37.147Z,100.00
2023-12-15T19:53:40.015Z,100.00
2023-12-15T19:56:43.462Z,100.00
2023-12-15T19:59:47.533Z,100.00
2023-12-15T20:02:50.491Z,100.00
2023-12-15T20:05:53.684Z,100.00
2023-12-15T20:09:05.692Z,100.00
2023-12-15T20:12:08.927Z,100.00
2023-12-15T20:15:13.004Z,100.00
2023-12-15T20:18:15.986Z,100.00
2023-12-15T20:21:22.970Z,100.00
2023-12-15T20:24:29.565Z,100.00
2023-12-15T20:27:43.275Z,100.00
2023-12-15T20:30:48.007Z,100.00
2023-12-15T20:33:51.136Z,100.00
2023-12-15T20:36:54.761Z,100.00
2023-12-15T20:39:57.931Z,100.00
2023-12-15T20:43:01.126Z,100.00
